Time;durP1;ratioP1;P1;durP2;ratioP2;P2;SDS_P1;SDS_P2;PMS_P1;PMS_P2;Temp;Humidity;BMP_temperature;BMP_pressure;BME280_temperature;BME280_humidity;BME280_pressure;Samples;Min_cycle;Max_cycle;Signal;HPM_P1;HPM_P2
2024/01/20 00:00:35;;;;;;;14.20;3.35;;;;;;;;;;5083462;28;20145;-72
2024/01/20 00:03:01;;;;;;;20.83;4.43;;;;;;;;;;5082173;28;20047;-72
2024/01/20 00:05:27;;;;;;;18.92;3.80;;;;;;;;;;5077803;28;20381;-72
2024/01/20 00:07:53;;;;;;;25.13;4.30;;;;;;;;;;5092907;28;20340;-72
2024/01/20 00:10:19;;;;;;;12.00;3.63;;;;;;;;;;5092272;28;20036;-72
2024/01/20 00:12:46;;;;;;;20.40;4.45;;;;;;;;;;5090647;28;20047;-72
2024/01/20 00:15:12;;;;;;;19.55;3.53;;;;;;;;;;5091683;28;20078;-72
2024/01/20 00:17:38;;;;;;;17.73;3.75;;;;;;;;;;5083560;28;20041;-72
2024/01/20 00:20:05;;;;;;;21.65;4.05;;;;;;;;;;5081014;28;20049;-72
2024/01/20 00:22:31;;;;;;;21.10;4.35;;;;;;;;;;5061523;28;20036;-72
2024/01/20 00:25:02;;;;;;;13.70;3.60;;;;;;;;;;5092036;28;20043;-72
2024/01/20 00:27:29;;;;;;;16.98;3.70;;;;;;;;;;5076677;28;20041;-72
2024/01/20 00:29:55;;;;;;;24.10;3.92;;;;;;;;;;5079239;28;20040;-72
2024/01/20 00:32:21;;;;;;;13.38;3.80;;;;;;;;;;5080542;28;20366;-72
2024/01/20 00:34:47;;;;;;;17.23;3.60;;;;;;;;;;5092302;28;20046;-72
2024/01/20 00:37:13;;;;;;;11.80;3.13;;;;;;;;;;5091319;28;20036;-73
2024/01/20 00:39:39;;;;;;;16.42;3.45;;;;;;;;;;5075190;28;20047;-73
2024/01/20 00:42:06;;;;;;;19.25;3.22;;;;;;;;;;5077990;28;20036;-73
2024/01/20 00:44:32;;;;;;;10.20;2.90;;;;;;;;;;5075109;28;20040;-72
2024/01/20 00:46:58;;;;;;;18.65;3.92;;;;;;;;;;5061987;28;20496;-73
2024/01/20 00:49:24;;;;;;;17.05;4.60;;;;;;;;;;5073804;28;20040;-73
2024/01/20 00:51:50;;;;;;;16.05;3.95;;;;;;;;;;5079083;28;20036;-73
2024/01/20 00:54:16;;;;;;;12.05;3.80;;;;;;;;;;5074377;28;20032;-73
2024/01/20 00:56:42;;;;;;;14.35;3.63;;;;;;;;;;5090219;28;20500;-72
2024/01/20 00:59:09;;;;;;;18.52;4.03;;;;;;;;;;5079038;28;20033;-73
2024/01/20 01:01:35;;;;;;;16.10;3.55;;;;;;;;;;5088268;28;20040;-73
2024/01/20 01:04:01;;;;;;;13.32;3.88;;;;;;;;;;5072946;28;20043;-73
2024/01/20 01:06:27;;;;;;;16.33;3.83;;;;;;;;;;5080342;28;20119;-73
2024/01/20 01:08:53;;;;;;;12.70;3.65;;;;;;;;;;5074273;28;20093;-73
2024/01/20 01:11:19;;;;;;;15.77;3.70;;;;;;;;;;5075766;28;20043;-73
2024/01/20 01:13:45;;;;;;;9.43;3.60;;;;;;;;;;5084108;28;20069;-73
2024/01/20 01:16:13;;;;;;;14.93;3.97;;;;;;;;;;5057631;28;20558;-73
2024/01/20 01:18:39;;;;;;;18.35;4.50;;;;;;;;;;5070519;28;20043;-73
2024/01/20 01:21:05;;;;;;;13.70;3.67;;;;;;;;;;5085373;28;20043;-71
2024/01/20 01:23:31;;;;;;;16.83;3.95;;;;;;;;;;5072924;28;20097;-71
2024/01/20 01:25:57;;;;;;;20.02;3.90;;;;;;;;;;5077102;28;20040;-71
2024/01/20 01:28:23;;;;;;;18.58;4.32;;;;;;;;;;5086437;28;20094;-72
2024/01/20 01:30:49;;;;;;;11.52;3.95;;;;;;;;;;5085788;28;20036;-72
2024/01/20 01:33:15;;;;;;;13.48;4.50;;;;;;;;;;5062440;28;20548;-71
2024/01/20 01:35:41;;;;;;;17.45;4.80;;;;;;;;;;5077525;28;20146;-71
2024/01/20 01:38:07;;;;;;;14.00;4.30;;;;;;;;;;5048491;28;20071;-71
2024/01/20 01:40:33;;;;;;;14.15;4.90;;;;;;;;;;5058842;28;20040;-71
2024/01/20 01:43:00;;;;;;;18.05;4.20;;;;;;;;;;5089122;28;20038;-72
2024/01/20 01:45:26;;;;;;;20.75;4.80;;;;;;;;;;5079133;28;20070;-72
2024/01/20 01:47:53;;;;;;;12.95;4.10;;;;;;;;;;5061109;28;20055;-71
2024/01/20 01:50:19;;;;;;;25.33;4.20;;;;;;;;;;5094568;28;20472;-72
2024/01/20 01:52:50;;;;;;;14.65;4.10;;;;;;;;;;5072840;28;20118;-71
2024/01/20 01:55:16;;;;;;;30.88;5.30;;;;;;;;;;5057721;28;20047;-71
2024/01/20 01:57:43;;;;;;;15.15;4.28;;;;;;;;;;5077563;28;20049;-71
2024/01/20 02:00:09;;;;;;;14.45;3.83;;;2.40;99.90;;;;;;5076748;28;20045;-72
2024/01/20 02:02:39;;;;;;;18.08;4.13;;;;;;;;;;5065045;28;20182;-71
2024/01/20 02:05:05;;;;;;;14.50;3.97;;;;;;;;;;5082813;28;20086;-71
2024/01/20 02:07:32;;;;;;;18.17;4.22;;;;;;;;;;5090273;28;20040;-71
2024/01/20 02:09:58;;;;;;;12.60;3.50;;;;;;;;;;5085455;28;20043;-71
2024/01/20 02:12:24;;;;;;;19.25;3.75;;;;;;;;;;5072137;28;20040;-71
2024/01/20 02:14:50;;;;;;;21.23;4.38;;;;;;;;;;5077188;28;20131;-71
2024/01/20 02:17:16;;;;;;;13.00;4.03;;;;;;;;;;5055556;28;20082;-70
2024/01/20 02:19:42;;;;;;;14.15;3.92;;;;;;;;;;5071391;28;20169;-70
2024/01/20 02:22:09;;;;;;;21.88;4.50;;;;;;;;;;5078904;28;20115;-72
2024/01/20 02:24:37;;;;;;;16.98;4.38;;;2.50;99.90;;;;;;5086000;28;20044;-70
2024/01/20 02:27:03;;;;;;;18.02;4.28;;;;;;;;;;5103142;28;20034;-71
2024/01/20 02:29:29;;;;;;;12.52;4.28;;;;;;;;;;5083421;28;20105;-71
2024/01/20 02:31:55;;;;;;;17.40;3.90;;;;;;;;;;5073455;28;20056;-70
2024/01/20 02:34:21;;;;;;;11.05;3.45;;;;;;;;;;5090579;28;20024;-71
2024/01/20 02:36:47;;;;;;;23.48;5.22;;;;;;;;;;5068986;28;20044;-71
2024/01/20 02:39:13;;;;;;;18.30;4.47;;;;;;;;;;5068012;28;20498;-71
2024/01/20 02:41:40;;;;;;;16.48;4.60;;;;;;;;;;5078682;28;20048;-70
2024/01/20 02:44:09;;;;;;;24.48;4.15;;;;;;;;;;5082282;28;20036;-71
2024/01/20 02:46:35;;;;;;;20.65;4.60;;;;;;;;;;5082251;28;20067;-71
2024/01/20 02:49:01;;;;;;;13.13;4.32;;;;;;;;;;5089885;28;20085;-71
2024/01/20 02:51:27;;;;;;;18.33;4.32;;;;;;;;;;5079296;28;20155;-71
2024/01/20 02:53:54;;;;;;;14.63;4.00;;;;;;;;;;5077118;28;20036;-71
2024/01/20 02:56:22;;;;;;;16.45;5.15;;;;;;;;;;5062248;28;20451;-70
2024/01/20 02:58:48;;;;;;;14.48;4.43;;;;;;;;;;5071682;28;20036;-70
2024/01/20 03:01:15;;;;;;;20.00;4.68;;;;;;;;;;5058214;28;20066;-71
2024/01/20 03:03:41;;;;;;;22.42;5.22;;;;;;;;;;5079434;28;20032;-71
2024/01/20 03:06:07;;;;;;;14.68;4.53;;;;;;;;;;5072523;28;20439;-71
2024/01/20 03:08:33;;;;;;;16.08;5.07;;;;;;;;;;5074175;28;20032;-71
2024/01/20 03:11:00;;;;;;;18.73;5.10;;;;;;;;;;5076969;28;20396;-71
2024/01/20 03:13:26;;;;;;;19.13;4.47;;;;;;;;;;5085486;28;20048;-71
2024/01/20 03:15:52;;;;;;;19.98;4.60;;;;;;;;;;5078567;28;20137;-71
2024/01/20 03:18:18;;;;;;;24.17;6.00;;;;;;;;;;5040599;28;20488;-71
2024/01/20 03:20:45;;;;;;;16.33;4.65;;;;;;;;;;5083294;28;20396;-70
2024/01/20 03:23:11;;;;;;;23.92;5.10;;;;;;;;;;5060504;28;20445;-70
2024/01/20 03:25:37;;;;;;;13.35;4.38;;;;;;;;;;5081203;28;20047;-70
2024/01/20 03:28:03;;;;;;;22.27;5.45;;;;;;;;;;5077838;28;20477;-70
2024/01/20 03:30:29;;;;;;;17.80;5.25;;;;;;;;;;5087506;28;20036;-70
2024/01/20 03:32:55;;;;;;;18.42;4.60;;;;;;;;;;5079934;28;20036;-71
2024/01/20 03:35:22;;;;;;;23.42;4.70;;;;;;;;;;5078652;28;20044;-70
2024/01/20 03:37:48;;;;;;;18.00;5.25;;;;;;;;;;5079865;28;20048;-71
2024/01/20 03:40:14;;;;;;;16.13;4.28;;;;;;;;;;5070980;28;20041;-70
2024/01/20 03:42:40;;;;;;;11.65;4.57;;;;;;;;;;5059749;28;20037;-71
2024/01/20 03:45:07;;;;;;;11.45;4.88;;;;;;;;;;5079323;28;20077;-71
2024/01/20 03:47:33;;;;;;;10.95;4.72;;;;;;;;;;5076116;28;20040;-71
2024/01/20 03:49:59;;;;;;;21.90;5.65;;;;;;;;;;5078979;28;20036;-71
2024/01/20 03:52:25;;;;;;;17.98;6.35;;;;;;;;;;5070764;28;20043;-71
2024/01/20 03:54:51;;;;;;;26.25;5.78;;;;;;;;;;5069992;28;20036;-71
2024/01/20 03:57:17;;;;;;;12.15;4.80;;;;;;;;;;5063849;28;20074;-71
2024/01/20 03:59:43;;;;;;;25.60;6.10;;;;;;;;;;5074877;28;20404;-71
2024/01/20 04:02:09;;;;;;;11.65;5.60;;;;;;;;;;5080036;28;20492;-71
2024/01/20 04:04:37;;;;;;;22.90;6.65;;;;;;;;;;5074333;28;20036;-71
2024/01/20 04:07:03;;;;;;;22.92;7.15;;;;;;;;;;5069361;28;20035;-71
2024/01/20 04:09:29;;;;;;;13.02;6.90;;;;;;;;;;5066003;28;20043;-71
2024/01/20 04:11:55;;;;;;;25.42;8.13;;;;;;;;;;5090018;28;20089;-71
2024/01/20 04:14:21;;;;;;;18.20;8.02;;;;;;;;;;5076488;28;20120;-71
2024/01/20 04:16:48;;;;;;;16.60;8.98;;;;;;;;;;5069874;28;20438;-71
2024/01/20 04:19:14;;;;;;;19.38;7.22;;;;;;;;;;5092057;28;20369;-71
2024/01/20 04:21:40;;;;;;;20.17;7.60;;;;;;;;;;5058718;28;20035;-71
2024/01/20 04:24:06;;;;;;;21.80;7.93;;;;;;;;;;5080807;28;20048;-71
2024/01/20 04:26:33;;;;;;;15.07;7.15;;;;;;;;;;5078777;28;20460;-72
2024/01/20 04:28:59;;;;;;;19.70;7.38;;;;;;;;;;5072138;28;20032;-72
2024/01/20 04:31:25;;;;;;;24.25;8.48;;;;;;;;;;5073789;28;20465;-72
2024/01/20 04:33:53;;;;;;;22.13;9.10;;;;;;;;;;5057156;28;20032;-72
2024/01/20 04:36:19;;;;;;;20.90;8.25;;;;;;;;;;5088633;28;20058;-72
2024/01/20 04:38:45;;;;;;;19.25;9.07;;;;;;;;;;5086769;28;20041;-71
2024/01/20 04:41:11;;;;;;;24.00;9.25;;;;;;;;;;5080037;28;20419;-72
2024/01/20 04:43:38;;;;;;;21.02;9.88;;;;;;;;;;5080376;28;20035;-72
2024/01/20 04:46:04;;;;;;;21.20;10.02;;;;;;;;;;5080152;28;20032;-72
2024/01/20 04:48:31;;;;;;;27.30;10.82;;;;;;;;;;5078386;28;20040;-72
2024/01/20 04:50:57;;;;;;;27.85;10.68;;;;;;;;;;5089948;28;20048;-72
2024/01/20 04:53:23;;;;;;;23.45;10.65;;;;;;;;;;5091477;28;20479;-71
2024/01/20 04:55:50;;;;;;;30.77;11.80;;;;;;;;;;5087292;28;20404;-72
2024/01/20 04:58:16;;;;;;;29.52;12.30;;;;;;;;;;5081577;28;20435;-72
2024/01/20 05:00:42;;;;;;;32.10;14.40;;;;;;;;;;5064858;28;20044;-72
2024/01/20 05:03:08;;;;;;;32.08;13.40;;;;;;;;;;5074999;28;20090;-72
2024/01/20 05:05:34;;;;;;;31.13;14.35;;;;;;;;;;5060857;28;20040;-72
2024/01/20 05:08:00;;;;;;;32.13;13.77;;;;;;;;;;5088839;28;20031;-72
2024/01/20 05:10:26;;;;;;;29.40;14.93;;;;;;;;;;5071768;28;20041;-72
2024/01/20 05:12:52;;;;;;;24.38;12.93;;;;;;;;;;5067962;28;20121;-72
2024/01/20 05:15:18;;;;;;;24.27;12.80;;;;;;;;;;5081344;28;20587;-72
2024/01/20 05:17:44;;;;;;;28.95;13.60;;;;;;;;;;5061901;28;20039;-72
2024/01/20 05:20:14;;;;;;;27.88;13.38;;;;;;;;;;5077663;28;20090;-72
2024/01/20 05:22:41;;;;;;;40.85;14.40;;;;;;;;;;5082876;28;20111;-72
2024/01/20 05:25:07;;;;;;;31.75;13.10;;;;;;;;;;5086640;28;20040;-72
2024/01/20 05:27:33;;;;;;;31.02;10.98;;;;;;;;;;5078339;28;20043;-72
2024/01/20 05:30:00;;;;;;;24.92;12.15;;;;;;;;;;5089652;28;20507;-72
2024/01/20 05:32:26;;;;;;;23.30;11.63;;;;;;;;;;5079039;28;20366;-72
2024/01/20 05:34:52;;;;;;;26.77;11.60;;;;;;;;;;5085539;28;20624;-72
2024/01/20 05:37:18;;;;;;;25.92;10.85;;;;;;;;;;5082960;28;20127;-72
2024/01/20 05:39:44;;;;;;;22.50;11.88;;;;;;;;;;5070003;28;20130;-72
2024/01/20 05:42:10;;;;;;;22.02;10.30;;;;;;;;;;5065185;28;20046;-72
2024/01/20 05:44:36;;;;;;;21.15;9.57;;;;;;;;;;5066187;28;20131;-72
2024/01/20 05:47:02;;;;;;;19.83;9.48;;;;;;;;;;5045880;28;20139;-72
2024/01/20 05:49:29;;;;;;;23.17;10.07;;;;;;;;;;5060192;28;20032;-73
2024/01/20 05:51:55;;;;;;;28.50;10.15;;;;;;;;;;5072627;28;20408;-73
2024/01/20 05:54:21;;;;;;;18.30;9.57;;;;;;;;;;5055927;28;20040;-73
2024/01/20 05:56:47;;;;;;;27.38;10.68;;;;;;;;;;5048628;28;20088;-72
2024/01/20 05:59:13;;;;;;;28.40;10.45;;;;;;;;;;5086768;28;20044;-72
2024/01/20 06:01:39;;;;;;;25.33;12.00;;;;;;;;;;5078433;28;20489;-72
2024/01/20 06:04:05;;;;;;;25.42;12.20;;;;;;;;;;5097159;28;20099;-74
2024/01/20 06:06:31;;;;;;;28.05;12.68;;;;;;;;;;5093404;28;20036;-73
2024/01/20 06:08:57;;;;;;;27.63;12.77;;;;;;;;;;5095853;28;20039;-74
2024/01/20 06:11:24;;;;;;;25.40;14.30;;;;;;;;;;5086546;28;20036;-71
2024/01/20 06:13:50;;;;;;;34.63;13.40;;;;;;;;;;5089480;28;20036;-71
2024/01/20 06:16:17;;;;;;;31.85;13.10;;;;;;;;;;5068569;28;20032;-71
2024/01/20 06:18:43;;;;;;;24.60;11.82;;;;;;;;;;5068674;28;20062;-71
2024/01/20 06:21:09;;;;;;;24.35;11.43;;;;;;;;;;5097292;28;20040;-72
2024/01/20 06:23:35;;;;;;;28.00;11.35;;;;;;;;;;5107778;28;20040;-71
2024/01/20 06:26:01;;;;;;;30.05;10.93;;;;;;;;;;5092247;28;20039;-71
2024/01/20 06:28:27;;;;;;;29.38;12.00;;;;;;;;;;5088619;28;20130;-71
2024/01/20 06:30:53;;;;;;;22.77;10.13;;;;;;;;;;5087821;28;20136;-71
2024/01/20 06:33:19;;;;;;;29.80;9.35;;;;;;;;;;5082816;28;20118;-71
2024/01/20 06:35:45;;;;;;;18.27;8.90;;;;;;;;;;5055996;28;20067;-71
2024/01/20 06:38:12;;;;;;;20.77;9.80;;;;;;;;;;5072003;28;20040;-71
2024/01/20 06:40:38;;;;;;;25.02;8.27;;;;;;;;;;5084986;28;20032;-71
2024/01/20 06:43:04;;;;;;;29.80;9.63;;;;;;;;;;5089487;28;20044;-71
2024/01/20 06:45:33;;;;;;;23.17;8.88;;;;;;;;;;5080446;28;20048;-71
2024/01/20 06:48:00;;;;;;;20.60;9.27;;;;;;;;;;5047630;28;20032;-71
2024/01/20 06:50:26;;;;;;;25.30;10.70;;;;;;;;;;5070651;28;20119;-71
2024/01/20 06:52:52;;;;;;;27.25;10.77;;;;;;;;;;5075149;28;20028;-71
2024/01/20 06:55:18;;;;;;;25.17;11.07;;;;;;;;;;5076347;28;20044;-71
2024/01/20 06:57:44;;;;;;;29.58;10.60;;;;;;;;;;5073987;28;20131;-71
2024/01/20 07:00:10;;;;;;;32.65;12.60;;;;;;;;;;5071555;28;20051;-71
2024/01/20 07:02:37;;;;;;;27.58;14.40;;;;;;;;;;5073438;28;20037;-72
2024/01/20 07:05:03;;;;;;;35.35;14.63;;;;;;;;;;5080782;28;20059;-71
2024/01/20 07:07:29;;;;;;;33.53;15.88;;;;;;;;;;5072891;28;20036;-71
2024/01/20 07:09:55;;;;;;;42.17;16.88;;;;;;;;;;5074001;28;20129;-72
2024/01/20 07:12:21;;;;;;;37.65;15.70;;;;;;;;;;5080061;28;20045;-72
2024/01/20 07:14:48;;;;;;;31.85;15.18;;;;;;;;;;5062181;28;20069;-71
2024/01/20 07:17:14;;;;;;;33.38;15.85;;;;;;;;;;5075118;28;20503;-71
2024/01/20 07:19:40;;;;;;;31.50;13.55;;;;;;;;;;5086806;28;20047;-71
2024/01/20 07:22:06;;;;;;;28.77;13.23;;;;;;;;;;5073898;28;20068;-71
2024/01/20 07:24:32;;;;;;;27.33;12.50;;;;;;;;;;5075186;28;20131;-71
2024/01/20 07:26:58;;;;;;;31.85;13.38;;;;;;;;;;5054226;28;20040;-71
2024/01/20 07:29:24;;;;;;;32.85;13.40;;;;;;;;;;5071507;28;20461;-71
2024/01/20 07:31:50;;;;;;;29.48;15.07;;;;;;;;;;5075211;28;20040;-71
2024/01/20 07:34:16;;;;;;;42.83;17.02;;;;;;;;;;5077995;28;20032;-71
2024/01/20 07:36:42;;;;;;;52.55;18.60;;;;;;;;;;5076969;28;20040;-71
2024/01/20 07:39:08;;;;;;;44.47;19.02;;;;;;;;;;5074462;28;20040;-71
2024/01/20 07:41:35;;;;;;;48.10;19.73;;;;;;;;;;5057942;28;20105;-71
2024/01/20 07:44:01;;;;;;;49.35;21.48;;;;;;;;;;5074661;28;20076;-71
2024/01/20 07:46:27;;;;;;;44.40;19.70;;;;;;;;;;5074366;28;20036;-71
2024/01/20 07:48:53;;;;;;;47.88;21.73;;;;;;;;;;5091763;28;20488;-71
2024/01/20 07:51:19;;;;;;;50.63;22.10;;;;;;;;;;5057662;28;20041;-72
2024/01/20 07:53:47;;;;;;;52.90;24.05;;;;;;;;;;5074307;28;20053;-72
2024/01/20 07:56:15;;;;;;;56.20;22.60;;;;;;;;;;5074477;28;20080;-72
2024/01/20 07:58:41;;;;;;;58.53;23.17;;;;;;;;;;5054043;28;20109;-72
2024/01/20 08:01:08;;;;;;;57.75;24.00;;;;;;;;;;5073712;28;20060;-72
2024/01/20 08:03:34;;;;;;;55.58;23.50;;;;;;;;;;5074347;28;20400;-72
2024/01/20 08:06:00;;;;;;;56.38;24.35;;;;;;;;;;5074613;28;20049;-72
2024/01/20 08:08:27;;;;;;;61.05;25.38;;;;;;;;;;5074813;28;20094;-72
2024/01/20 08:10:53;;;;;;;64.97;27.20;;;;;;;;;;5076823;28;20089;-72
2024/01/20 08:13:20;;;;;;;68.25;26.52;;;;;;;;;;5073975;28;20049;-72
2024/01/20 08:15:47;;;;;;;61.42;27.55;;;;;;;;;;5074525;28;20100;-71
2024/01/20 08:18:14;;;;;;;66.50;28.90;;;;;;;;;;5088620;28;20040;-77
2024/01/20 08:20:40;;;;;;;66.40;28.90;;;;;;;;;;5084771;28;20032;-72
2024/01/20 08:23:06;;;;;;;68.60;29.10;;;;;;;;;;5086065;28;20047;-73
2024/01/20 08:25:32;;;;;;;58.25;28.88;;;;;;;;;;5074203;28;20485;-73
2024/01/20 08:27:58;;;;;;;73.03;28.98;;;;;;;;;;5081499;28;20063;-74
2024/01/20 08:30:24;;;;;;;69.47;28.95;;;;;;;;;;5076551;28;20043;-73
2024/01/20 08:32:50;;;;;;;63.33;27.80;;;;;;;;;;5094443;28;20047;-73
2024/01/20 08:35:16;;;;;;;68.32;28.60;;;;;;;;;;5094599;28;20555;-73
2024/01/20 08:37:42;;;;;;;75.00;27.85;;;;;;;;;;5094641;28;20055;-72
2024/01/20 08:40:08;;;;;;;71.47;29.08;;;;;;;;;;5085574;28;20040;-72
2024/01/20 08:42:34;;;;;;;62.83;28.48;;;;;;;;;;5073877;28;20043;-72
2024/01/20 08:45:00;;;;;;;63.70;28.20;;;;;;;;;;5057230;28;20040;-73
2024/01/20 08:47:26;;;;;;;65.38;28.08;;;;;;;;;;5057566;28;20389;-72
2024/01/20 08:49:53;;;;;;;71.40;28.13;;;;;;;;;;5074277;28;20467;-72
2024/01/20 08:52:19;;;;;;;66.82;27.75;;;;;;;;;;5073965;28;20119;-72
2024/01/20 08:54:45;;;;;;;61.38;26.75;;;;;;;;;;5090316;28;20036;-80
2024/01/20 08:57:11;;;;;;;60.35;27.42;;;;;;;;;;5073450;28;20492;-72
2024/01/20 08:59:37;;;;;;;64.80;27.67;;;;;;;;;;5057192;28;20090;-72
2024/01/20 09:02:03;;;;;;;70.88;29.05;;;;;;;;;;5057147;28;20059;-72
2024/01/20 09:04:30;;;;;;;62.42;28.65;;;;;;;;;;5074339;28;20048;-72
2024/01/20 09:06:56;;;;;;;71.30;28.52;;;;;;;;;;5073620;28;20029;-72
2024/01/20 09:09:22;;;;;;;66.28;29.35;;;;;;;;;;5056886;28;20123;-71
2024/01/20 09:11:49;;;;;;;65.68;28.35;;;;;;;;;;5073706;28;20090;-72
2024/01/20 09:14:15;;;;;;;68.05;29.65;;;;;;;;;;5074681;28;20053;-72
2024/01/20 09:16:41;;;;;;;71.55;28.10;;;;;;;;;;5073427;28;20123;-72
2024/01/20 09:19:07;;;;;;;66.03;27.83;;;;;;;;;;5081100;28;20039;-72
2024/01/20 09:21:33;;;;;;;68.50;28.50;;;;;;;;;;5081211;28;20028;-72
2024/01/20 09:24:00;;;;;;;63.42;28.77;;;;;;;;;;5065170;28;20153;-72
2024/01/20 09:26:26;;;;;;;75.82;27.77;;;;;;;;;;5088958;28;20462;-72
2024/01/20 09:28:52;;;;;;;70.70;27.17;;;;;;;;;;5060357;28;20046;-72
2024/01/20 09:31:18;;;;;;;69.53;27.33;;;;;;;;;;5079968;28;20044;-72
2024/01/20 09:33:45;;;;;;;75.03;30.42;;;;;;;;;;5074615;28;20453;-72
2024/01/20 09:36:11;;;;;;;61.92;27.10;;;;;;;;;;5056939;28;20046;-72
2024/01/20 09:38:37;;;;;;;59.92;26.58;;;;;;;;;;5086258;28;20052;-72
2024/01/20 09:41:09;;;;;;;65.45;26.60;;;;;;;;;;5084110;28;20048;-72
2024/01/20 09:43:37;;;;;;;65.47;26.67;;;;;;;;;;5088191;28;20102;-72
2024/01/20 09:46:03;;;;;;;67.45;27.48;;;;;;;;;;5090586;28;20093;-72
2024/01/20 09:48:29;;;;;;;73.07;28.50;;;;;;;;;;5063240;28;20039;-72
2024/01/20 09:50:55;;;;;;;70.18;26.63;;;;;;;;;;5086449;28;20043;-72
2024/01/20 09:53:21;;;;;;;67.40;26.98;;;;;;;;;;5082222;28;20122;-72
2024/01/20 09:55:47;;;;;;;72.30;27.02;;;;;;;;;;5071445;28;20507;-72
2024/01/20 09:58:15;;;;;;;57.05;25.00;;;;;;;;;;5065408;28;20098;-73
2024/01/20 10:00:42;;;;;;;69.63;25.77;;;;;;;;;;5081518;28;20271;-72
2024/01/20 10:03:09;;;;;;;66.10;26.98;;;2.00;99.90;;;;;;5094037;28;20039;-71
2024/01/20 10:05:35;;;;;;;67.90;27.25;;;;;;;;;;5068458;28;20047;-71
2024/01/20 10:08:02;;;;;;;74.13;27.63;;;;;;;;;;5083439;28;20041;-71
2024/01/20 10:10:31;;;;;;;71.97;28.77;;;;;;;;;;5073734;28;20032;-71
2024/01/20 10:12:57;;;;;;;68.32;26.33;;;;;;;;;;5095000;28;20143;-71
2024/01/20 10:15:26;;;;;;;66.00;27.05;;;;;;;;;;5082677;28;20058;-71
2024/01/20 10:17:52;;;;;;;67.72;28.17;;;;;;;;;;5078553;28;20530;-71
2024/01/20 10:20:21;;;;;;;61.13;25.05;;;;;;;;;;5056777;28;20119;-71
2024/01/20 10:22:49;;;;;;;65.22;26.08;;;;;;;;;;5056844;28;20070;-71
2024/01/20 10:25:19;;;;;;;62.70;26.98;;;;;;;;;;5071651;28;20453;-71
2024/01/20 10:27:46;;;;;;;62.35;26.23;;;;;;;;;;5074828;28;20397;-71
2024/01/20 10:30:13;;;;;;;61.13;24.63;;;;;;;;;;5088460;28;20528;-71
2024/01/20 10:32:42;;;;;;;60.95;26.10;;;;;;;;;;5084967;28;20123;-71
2024/01/20 10:35:08;;;;;;;57.80;24.73;;;;;;;;;;5072268;28;20123;-71
2024/01/20 10:37:37;;;;;;;63.88;24.40;;;;;;;;;;5085533;28;20384;-71
2024/01/20 10:40:03;;;;;;;68.57;25.73;;;;;;;;;;5090145;28;20401;-71
2024/01/20 10:42:32;;;;;;;63.00;24.98;;;;;;;;;;5074419;28;20135;-72
2024/01/20 10:45:09;;;;;;;66.68;25.35;;;;;;;;;;5071609;28;20037;-71
2024/01/20 10:47:38;;;;;;;55.38;23.98;;;2.40;99.90;;;;;;5073083;28;20067;-71
2024/01/20 10:50:05;;;;;;;62.08;26.67;;;2.40;99.90;;;;;;5084845;28;20062;-71
2024/01/20 10:52:35;;;;;;;59.78;24.90;;;;;;;;;;5071230;28;20508;-71
2024/01/20 10:55:01;;;;;;;75.68;26.40;;;;;;;;;;5088352;28;20039;-71
2024/01/20 10:57:28;;;;;;;61.50;25.20;;;;;;;;;;5071801;28;20039;-71
2024/01/20 10:59:56;;;;;;;58.80;24.70;;;2.60;99.90;;;;;;5072592;28;20046;-70
2024/01/20 11:02:23;;;;;;;64.60;27.00;;;2.50;99.90;;;;;;5078829;28;20052;-71
2024/01/20 11:04:49;;;;;;;68.90;26.20;;;;;;;;;;5078042;28;20508;-71
2024/01/20 11:07:23;;;;;;;65.18;26.10;;;2.40;99.90;;;;;;5083066;28;20035;-70
2024/01/20 11:09:59;;;;;;;61.47;25.02;;;2.60;99.90;;;;;;5108436;28;20043;-71
2024/01/20 11:12:26;;;;;;;64.55;27.17;;;;;;;;;;5084260;28;20123;-71
2024/01/20 11:14:56;;;;;;;59.60;24.17;;;;;;;;;;5082066;28;20044;-70
2024/01/20 11:17:23;;;;;;;69.10;27.67;;;;;;;;;;5089429;28;20043;-70
2024/01/20 11:19:50;;;;;;;70.03;25.80;;;;;;;;;;5085724;28;20383;-71
2024/01/20 11:22:29;;;;;;;61.90;25.42;;;;;;;;;;5083095;28;20044;-70
2024/01/20 11:24:55;;;;;;;71.72;25.85;;;;;;;;;;5089556;28;20052;-70
2024/01/20 11:27:21;;;;;;;80.70;26.63;;;;;;;;;;5077762;28;20047;-70
2024/01/20 11:29:47;;;;;;;65.28;26.52;;;;;;;;;;5076669;28;20048;-70
2024/01/20 11:32:13;;;;;;;63.13;25.15;;;;;;;;;;5083031;28;20142;-70
2024/01/20 11:34:40;;;;;;;67.03;26.73;;;;;;;;;;5076876;28;20372;-70
2024/01/20 11:37:08;;;;;;;78.88;28.80;;;;;;;;;;5075109;28;20044;-71
2024/01/20 11:39:34;;;;;;;79.03;28.15;;;;;;;;;;5085624;28;20036;-71
2024/01/20 11:42:03;;;;;;;69.68;27.02;;;;;;;;;;5109398;28;20093;-72
2024/01/20 11:44:31;;;;;;;75.18;28.65;;;;;;;;;;5081859;28;20048;-71
2024/01/20 11:46:59;;;;;;;72.50;27.33;;;;;;;;;;5064018;28;20046;-71
2024/01/20 11:49:25;;;;;;;73.70;30.55;;;;;;;;;;5066797;28;20484;-72
2024/01/20 11:51:52;;;;;;;72.75;28.58;;;;;;;;;;5080863;28;20362;-74
2024/01/20 11:54:18;;;;;;;74.90;28.00;;;;;;;;;;5087508;28;20033;-73
2024/01/20 11:56:44;;;;;;;74.85;27.33;;;;;;;;;;5089353;28;20041;-74
2024/01/20 11:59:13;;;;;;;72.80;27.85;;;;;;;;;;5081848;28;20079;-74
2024/01/20 12:01:39;;;;;;;84.55;28.83;;;;;;;;;;5080492;28;20119;-74
2024/01/20 12:04:05;;;;;;;77.68;30.15;;;;;;;;;;5092245;28;20040;-74
2024/01/20 12:06:31;;;;;;;75.07;29.65;;;;;;;;;;5074713;28;20489;-74
2024/01/20 12:08:57;;;;;;;74.20;27.63;;;;;;;;;;5088310;28;20073;-73
2024/01/20 12:11:24;;;;;;;76.30;29.77;;;;;;;;;;5090441;28;20036;-72
2024/01/20 12:13:50;;;;;;;79.55;29.48;;;;;;;;;;5075946;28;20048;-72
2024/01/20 12:16:17;;;;;;;79.03;27.38;;;;;;;;;;5084351;28;20365;-73
2024/01/20 12:18:43;;;;;;;75.95;27.92;;;;;;;;;;5060821;28;20040;-73
2024/01/20 12:21:09;;;;;;;66.43;27.20;;;;;;;;;;5090920;28;20036;-72
2024/01/20 12:23:38;;;;;;;83.70;30.40;;;;;;;;;;5063989;28;20123;-73
2024/01/20 12:26:12;;;;;;;70.13;27.20;;;2.90;99.90;;;;;;5080008;28;20051;-72
2024/01/20 12:28:38;;;;;;;77.25;27.48;;;;;;;;;;5088581;28;20064;-72
2024/01/20 12:31:04;;;;;;;72.47;27.25;;;;;;;;;;5086332;28;20032;-72
2024/01/20 12:33:30;;;;;;;71.35;27.63;;;;;;;;;;5063014;28;20081;-72
2024/01/20 12:35:56;;;;;;;64.00;26.45;;;;;;;;;;5080472;28;20127;-72
2024/01/20 12:38:22;;;;;;;65.63;25.90;;;;;;;;;;5079140;28;20123;-72
2024/01/20 12:40:48;;;;;;;70.07;25.55;;;;;;;;;;5082268;28;20033;-72
2024/01/20 12:43:14;;;;;;;65.55;25.60;;;;;;;;;;5058401;28;20043;-72
2024/01/20 12:45:40;;;;;;;72.68;26.08;;;;;;;;;;5067647;28;20037;-72
2024/01/20 12:48:07;;;;;;;70.15;26.00;;;;;;;;;;5073295;28;20107;-72
2024/01/20 12:50:33;;;;;;;66.65;23.20;;;;;;;;;;5090378;28;20264;-72
2024/01/20 12:52:59;;;;;;;58.58;24.90;;;;;;;;;;5080358;28;20047;-74
2024/01/20 12:55:25;;;;;;;59.92;24.38;;;;;;;;;;5067028;28;20040;-73
2024/01/20 12:57:51;;;;;;;63.95;25.48;;;;;;;;;;5091078;28;20439;-73
2024/01/20 13:00:18;;;;;;;67.30;25.80;;;;;;;;;;5041029;28;20033;-73
2024/01/20 13:02:44;;;;;;;67.25;25.00;;;;;;;;;;5077282;28;20130;-73
2024/01/20 13:05:10;;;;;;;67.63;24.02;;;;;;;;;;5067622;28;20068;-74
2024/01/20 13:07:36;;;;;;;61.28;24.30;;;;;;;;;;5091808;28;20031;-74
2024/01/20 13:10:02;;;;;;;60.10;22.77;;;;;;;;;;5106108;28;20033;-73
2024/01/20 13:12:28;;;;;;;66.57;24.40;;;;;;;;;;5087109;28;20068;-73
2024/01/20 13:14:54;;;;;;;57.35;22.23;;;;;;;;;;5089642;28;20074;-73
2024/01/20 13:17:20;;;;;;;60.53;24.25;;;;;;;;;;5066781;28;20044;-73
2024/01/20 13:19:46;;;;;;;62.35;23.33;;;;;;;;;;5086897;28;20169;-73
2024/01/20 13:22:13;;;;;;;56.30;23.50;;;;;;;;;;5100217;28;20138;-73
2024/01/20 13:24:39;;;;;;;58.67;21.65;;;;;;;;;;5108673;28;20054;-73
2024/01/20 13:27:06;;;;;;;54.88;22.38;;;;;;;;;;5085027;28;20039;-73
2024/01/20 13:29:32;;;;;;;58.42;21.27;;;;;;;;;;5070544;28;20411;-73
2024/01/20 13:31:58;;;;;;;57.88;20.27;;;;;;;;;;5066954;28;20542;-73
2024/01/20 13:34:24;;;;;;;60.97;20.77;;;;;;;;;;5084377;28;20044;-73
2024/01/20 13:36:50;;;;;;;56.25;19.77;;;;;;;;;;5090266;28;21674;-73
2024/01/20 13:39:16;;;;;;;59.53;21.05;;;;;;;;;;5090290;28;20032;-73
2024/01/20 13:41:42;;;;;;;59.97;21.63;;;;;;;;;;5057747;28;20040;-73
2024/01/20 13:44:08;;;;;;;53.13;19.38;;;;;;;;;;5063641;28;20032;-73
2024/01/20 13:46:34;;;;;;;42.42;18.10;;;;;;;;;;5057644;28;20028;-73
2024/01/20 13:49:00;;;;;;;55.30;20.58;;;;;;;;;;5076043;28;20039;-73
2024/01/20 13:51:31;;;;;;;50.00;18.95;;;;;;;;;;5082440;28;20036;-73
2024/01/20 13:53:58;;;;;;;50.35;19.25;;;;;;;;;;5072871;28;20140;-73
2024/01/20 13:56:25;;;;;;;55.22;19.30;;;;;;;;;;5084349;28;20406;-73
2024/01/20 13:58:52;;;;;;;47.75;18.83;;;;;;;;;;5072876;28;20071;-73
2024/01/20 14:01:22;;;;;;;42.95;16.92;;;;;;;;;;5085216;28;20052;-72
2024/01/20 14:03:51;;;;;;;47.35;19.42;;;;;;;;;;5074925;28;20048;-73
2024/01/20 14:06:18;;;;;;;45.60;17.80;;;;;;;;;;5082407;28;20033;-73
2024/01/20 14:08:44;;;;;;;47.45;17.42;;;;;;;;;;5079568;28;20044;-73
2024/01/20 14:11:10;;;;;;;42.88;16.90;;;;;;;;;;5072173;28;20090;-73
2024/01/20 14:13:36;;;;;;;46.45;18.25;;;;;;;;;;5072079;28;20489;-73